Impacts TAF Board
For situational awareness. Not to be used for flight planning purposes.
IDs:

KSAN - San Diego Intl Arpt, CA, US

Issued at 0300 UTC 14 Dec 2018
Updated at 0454 UTC 14 Dec 2018
Potential Impact None Slight Moderate High
Time0451Z 14/05Z 14/06Z 14/07Z 14/08Z 14/09Z 14/10Z 14/11Z 14/12Z 14/13Z 14/14Z 14/15Z 14/16Z 14/17Z>>
Type OBS PRVL PRVL PRVL PRVL PRVL PRVL PRVL PRVL PRVL PRVL PRVL PRVL PRVL
VIS 8 >6 >6 >6 >6 >6 >6 >6 >6 >6 >6 >6 >6 >6
CIG -- -- -- -- -- -- -- -- -- -- -- -- -- --
Cover SCT SCT SCT SCT SCT SCT SCT SCT SCT SCT SCT SCT SCT SCT
FltCat VFR VFR VFR VFR VFR VFR VFR VFR VFR VFR VFR VFR VFR VFR
WX -- -- -- -- -- -- -- -- -- -- -- -- -- --
WDir VRB VRB VRB VRB VRB VRB VRB VRB VRB VRB VRB VRB VRB VRB
WSpd 0 4 4 4 4 4 4 4 4 4 4 4 4 4
WGst -- -- -- -- -- -- -- -- -- -- -- -- -- --
Raw TAF
KSAN 140300Z 1403/1506 VRB04KT P6SM SCT250
  FM142100 29008KT P6SM BKN200
  FM150200 VRB04KT P6SM BKN200


Raw METAR
KSAN 140451Z 00000KT 8SM SCT250 16/14 A3021 RMK AO2 SLP230 T01560139
KSAN 140351Z 00000KT 8SM FEW250 17/14 A3020 RMK AO2 SLP227 T01670144
KSAN 140251Z 25004KT 10SM FEW250 17/14 A3019 RMK AO2 SLP224 T01720139 53005
KSAN 140151Z 22003KT 10SM FEW250 18/12 A3019 RMK AO2 SLP223 T01780122

METAR Board
Radar Display
Forecast Discussion
For situational awareness. Not to be used for flight planning purposes.